Hlavní strana
METAR-TAF:

METAR-TAF

Letiště :

Halmstad, Švédsko

zeměpisná šířka: 56-41N, zeměpisná délka: 012-50E, výška: 30 m

Aktuální stav počasí

Zpráva byla vytvořena před 36 minutami, v 17:20 UTC
Jihojihozápadní vítr 27 kt
Teplota 4°C
Vlhkost vzduchu 87%
Tlak 983 hPa
Viditelnost 10 km a více
slabé mrholení

METAR: ESMT 221720Z AUTO 21027KT 9999 -DZ OVC018/// 04/02 Q0983 REUP RESHUP

Čas: 18:56 (17:56 UTC)

Předpověď počasí

Zpráva byla vytvořena před 3 hodinami a 41 minutami, v 14:15 UTC
Předpověď platná od 22 v 15 UTC do 22 v 18 UTC
Jihojihozápadní vítr 20 kt
Viditelnost 10 km a více
Oblačno až skoro zataženo ve výšce 2000 ft
Dočasný
od 22 v 15 UTC do 22 v 18 UTC
Jihozápadní vítr 22 kt s nárazy do 37 kt
Pravděpodobnost 40%
od 22 v 17 UTC do 22 v 18 UTC
Oblačno až skoro zataženo ve výšce 1000 ft

TAF: ESMT 221415Z 2215/2218 21020KT 9999 BKN020 TEMPO 2215/2218 22022G37KT PROB40 2217/2218 BKN010

Stav a předpovědi počasí z více než 4 000 letišť (zprávy METAR a TAF).

Červené a žluté tečky na mapě představují dostupné meteorologické stanice.

Když kurzor umístíte na tečku, zobrazí se název stanice.

Pak kliknutím zobrazíte stav a předpověď počasí.

Chcete-li změnit mapu, kliknutím na zelené tlačítko se znaménkem +mapu přiblížíte, kliknutím na zelené tlačítko se znaménkem – mapu oddálíte a kliknutím na zelené šipky přejdete na sousední mapy.


METAR-TAF: